Ostatnio dodane

Tytuł Autor Odpowiedzi Last Postikona sortowania Odsłon łącznie Odsłon dzisiaj
Sterownik świateł do samochodu - jak podać sygnały na mikrokontroler? mareks6 22 2014-10-28 17:09 4 155 2 463
Atmega fusebit doctor Łukasz 4 2014-10-07 10:09 10 141 3 713
USBasp problem z programowaniem Eagle 8 2014-10-05 05:49 5 034 1 936
Bascom - Sterowanie wyjściami z impulsatora? Mirix 7 2014-10-01 15:49 4 725 2 761
RFM12B - łatwiejsze niż myślisz EDC 2014-09-15 00:56 5 998 3 514
Przerywacz kierunkowskazów APE 13A - nie działa poprawnie po naprawie Motorpal 2 2014-09-11 13:26 2 509 1 723
Cyfrowy Przedwzmacniacz mirley 102 2014-08-28 21:21 42 353 11 433
Sterownik C.O. z monitoringiem EDC 3 2014-08-27 16:35 3 334 2 052
AVR Odtwarzacz wav demsy1 2 2014-08-16 12:42 2 413 1 614
problem ze wzmacniaczem na Tda 1905 Misiek 6 2014-08-09 20:52 12 176 2 689
Timer+pomiar temperatury marekszy 14 2014-07-19 20:50 2 718 1 782
Przetwornik ADC maro 7 2014-07-16 10:11 2 898 1 821
Mirley.net Uruchomiona mirley 2014-07-16 08:05 3 297 2 031
Przerwanie operacji WAIT bascom barni 1 2014-07-10 14:08 2 847 1 894
Nowy soft przez USB/RS232 czyli BOOTLOADER EDC 13 2014-07-03 08:34 5 601 3 697
Zapis i odczyt do eeprom demsy1 6 2014-06-27 11:35 2 972 1 944
Regulator PWM DC 15A Chester 15 2014-06-25 18:00 5 328 3 094
AVT1460 Chester 2 2014-06-25 17:57 2 347 1 554
Bascom-PWM nanab 88 2014-06-24 05:21 38 495 9 040
Przerwania INT0 i INT1 jacek1987-1987 21 2014-06-22 22:04 4 709 2 916
Zwiększenie zasięgu działania czujnika na fototranzystorze i diodzie IR jacek1987-1987 17 2014-06-17 22:46 4 733 3 122
Big Endian w atmega32 wchpikus 2 2014-06-14 11:57 3 503 2 135
Modyfikacja kierownicy PC MSideWinder FFB (pomysły) Radzioo 5 2014-06-13 18:15 5 712 3 479
termometr_uniwersalny wersja na 2051 kaktus 4 2014-06-07 16:29 4 303 1 652
libs description w Eagle kaktus 1 2014-06-07 16:12 3 465 2 175